sensor_id;sensor_type;location;lat;lon;timestamp;P1;durP1;ratioP1;P2;durP2;ratioP2
53503;SDS011;39387;50.998;22.340;2023-04-30T00:00:02;8.70;;;5.05;;
53503;SDS011;39387;50.998;22.340;2023-04-30T00:02:54;7.93;;;5.38;;
53503;SDS011;39387;50.998;22.340;2023-04-30T00:05:22;8.90;;;5.63;;
53503;SDS011;39387;50.998;22.340;2023-04-30T00:07:49;8.80;;;4.32;;
53503;SDS011;39387;50.998;22.340;2023-04-30T00:10:17;8.93;;;5.03;;
53503;SDS011;39387;50.998;22.340;2023-04-30T00:12:44;9.15;;;5.68;;
53503;SDS011;39387;50.998;22.340;2023-04-30T00:15:12;9.82;;;5.25;;
53503;SDS011;39387;50.998;22.340;2023-04-30T00:17:39;10.30;;;5.40;;
53503;SDS011;39387;50.998;22.340;2023-04-30T00:20:08;13.05;;;6.28;;
53503;SDS011;39387;50.998;22.340;2023-04-30T00:22:36;10.37;;;5.77;;
53503;SDS011;39387;50.998;22.340;2023-04-30T00:25:04;10.05;;;4.97;;
53503;SDS011;39387;50.998;22.340;2023-04-30T00:27:31;8.68;;;5.22;;
53503;SDS011;39387;50.998;22.340;2023-04-30T00:29:59;9.55;;;5.32;;
53503;SDS011;39387;50.998;22.340;2023-04-30T00:32:26;8.95;;;5.30;;
53503;SDS011;39387;50.998;22.340;2023-04-30T00:34:53;11.38;;;5.68;;
53503;SDS011;39387;50.998;22.340;2023-04-30T00:37:22;10.43;;;5.82;;
53503;SDS011;39387;50.998;22.340;2023-04-30T00:39:49;9.93;;;6.63;;
53503;SDS011;39387;50.998;22.340;2023-04-30T00:42:17;9.65;;;5.63;;
53503;SDS011;39387;50.998;22.340;2023-04-30T00:44:44;9.68;;;5.90;;
53503;SDS011;39387;50.998;22.340;2023-04-30T00:47:11;11.20;;;6.07;;
53503;SDS011;39387;50.998;22.340;2023-04-30T00:49:39;7.55;;;5.50;;
53503;SDS011;39387;50.998;22.340;2023-04-30T00:52:06;7.95;;;4.82;;
53503;SDS011;39387;50.998;22.340;2023-04-30T00:54:35;9.27;;;4.85;;
53503;SDS011;39387;50.998;22.340;2023-04-30T00:57:03;7.85;;;4.93;;
53503;SDS011;39387;50.998;22.340;2023-04-30T00:59:31;9.25;;;4.85;;
53503;SDS011;39387;50.998;22.340;2023-04-30T01:01:59;6.97;;;4.72;;
53503;SDS011;39387;50.998;22.340;2023-04-30T01:04:27;7.97;;;4.57;;
53503;SDS011;39387;50.998;22.340;2023-04-30T01:06:54;7.40;;;4.50;;
53503;SDS011;39387;50.998;22.340;2023-04-30T01:09:22;8.80;;;5.80;;
53503;SDS011;39387;50.998;22.340;2023-04-30T01:11:55;9.45;;;5.10;;
53503;SDS011;39387;50.998;22.340;2023-04-30T01:14:29;10.30;;;5.68;;
53503;SDS011;39387;50.998;22.340;2023-04-30T01:17:01;6.50;;;4.93;;
53503;SDS011;39387;50.998;22.340;2023-04-30T01:19:34;8.57;;;4.78;;
53503;SDS011;39387;50.998;22.340;2023-04-30T01:22:04;8.07;;;4.95;;
53503;SDS011;39387;50.998;22.340;2023-04-30T01:24:44;8.32;;;4.70;;
53503;SDS011;39387;50.998;22.340;2023-04-30T01:27:22;8.60;;;4.95;;
53503;SDS011;39387;50.998;22.340;2023-04-30T01:29:55;9.73;;;5.18;;
53503;SDS011;39387;50.998;22.340;2023-04-30T01:32:22;7.13;;;4.63;;
53503;SDS011;39387;50.998;22.340;2023-04-30T01:34:50;8.75;;;5.30;;
53503;SDS011;39387;50.998;22.340;2023-04-30T01:37:20;8.57;;;5.30;;
53503;SDS011;39387;50.998;22.340;2023-04-30T01:39:58;9.40;;;4.38;;
53503;SDS011;39387;50.998;22.340;2023-04-30T01:42:35;6.38;;;4.63;;
53503;SDS011;39387;50.998;22.340;2023-04-30T01:45:19;8.98;;;5.25;;
53503;SDS011;39387;50.998;22.340;2023-04-30T01:47:54;7.75;;;4.80;;
53503;SDS011;39387;50.998;22.340;2023-04-30T01:50:41;5.78;;;3.63;;
53503;SDS011;39387;50.998;22.340;2023-04-30T01:53:14;6.13;;;4.20;;
53503;SDS011;39387;50.998;22.340;2023-04-30T01:55:46;7.07;;;4.18;;
53503;SDS011;39387;50.998;22.340;2023-04-30T01:58:16;9.40;;;4.63;;
53503;SDS011;39387;50.998;22.340;2023-04-30T02:00:46;5.82;;;3.85;;
53503;SDS011;39387;50.998;22.340;2023-04-30T02:03:13;6.60;;;3.83;;
53503;SDS011;39387;50.998;22.340;2023-04-30T02:05:41;6.20;;;4.03;;
53503;SDS011;39387;50.998;22.340;2023-04-30T02:08:08;5.38;;;3.30;;
53503;SDS011;39387;50.998;22.340;2023-04-30T02:10:36;6.43;;;3.85;;
53503;SDS011;39387;50.998;22.340;2023-04-30T02:13:03;8.50;;;3.80;;
53503;SDS011;39387;50.998;22.340;2023-04-30T02:15:30;5.10;;;3.33;;
53503;SDS011;39387;50.998;22.340;2023-04-30T02:17:59;5.65;;;3.83;;
53503;SDS011;39387;50.998;22.340;2023-04-30T02:20:27;5.85;;;3.78;;
53503;SDS011;39387;50.998;22.340;2023-04-30T02:22:54;8.27;;;4.40;;
53503;SDS011;39387;50.998;22.340;2023-04-30T02:25:21;5.45;;;3.30;;
53503;SDS011;39387;50.998;22.340;2023-04-30T02:27:48;7.18;;;3.75;;
53503;SDS011;39387;50.998;22.340;2023-04-30T02:30:16;5.97;;;3.70;;
53503;SDS011;39387;50.998;22.340;2023-04-30T02:32:45;7.63;;;4.45;;
53503;SDS011;39387;50.998;22.340;2023-04-30T02:35:14;6.97;;;4.20;;
53503;SDS011;39387;50.998;22.340;2023-04-30T02:37:42;7.07;;;4.45;;
53503;SDS011;39387;50.998;22.340;2023-04-30T02:40:10;8.23;;;4.47;;
53503;SDS011;39387;50.998;22.340;2023-04-30T02:42:38;7.07;;;4.30;;
53503;SDS011;39387;50.998;22.340;2023-04-30T02:45:05;6.15;;;4.10;;
53503;SDS011;39387;50.998;22.340;2023-04-30T02:47:33;7.03;;;3.92;;
53503;SDS011;39387;50.998;22.340;2023-04-30T02:50:01;5.65;;;3.75;;
53503;SDS011;39387;50.998;22.340;2023-04-30T02:52:29;5.35;;;3.28;;
53503;SDS011;39387;50.998;22.340;2023-04-30T02:54:57;5.20;;;3.63;;
53503;SDS011;39387;50.998;22.340;2023-04-30T02:57:25;6.22;;;3.90;;
53503;SDS011;39387;50.998;22.340;2023-04-30T02:59:52;7.53;;;3.42;;
53503;SDS011;39387;50.998;22.340;2023-04-30T03:02:19;5.07;;;3.38;;
53503;SDS011;39387;50.998;22.340;2023-04-30T03:04:48;6.90;;;3.67;;
53503;SDS011;39387;50.998;22.340;2023-04-30T03:07:15;6.30;;;3.58;;
53503;SDS011;39387;50.998;22.340;2023-04-30T03:09:44;5.70;;;3.80;;
53503;SDS011;39387;50.998;22.340;2023-04-30T03:12:12;6.18;;;4.30;;
53503;SDS011;39387;50.998;22.340;2023-04-30T03:14:40;6.22;;;3.85;;
53503;SDS011;39387;50.998;22.340;2023-04-30T03:17:07;8.70;;;4.43;;
53503;SDS011;39387;50.998;22.340;2023-04-30T03:19:35;7.95;;;4.78;;
53503;SDS011;39387;50.998;22.340;2023-04-30T03:22:02;6.80;;;3.95;;
53503;SDS011;39387;50.998;22.340;2023-04-30T03:24:30;7.78;;;4.30;;
53503;SDS011;39387;50.998;22.340;2023-04-30T03:26:58;6.93;;;3.83;;
53503;SDS011;39387;50.998;22.340;2023-04-30T03:29:26;6.35;;;4.45;;
53503;SDS011;39387;50.998;22.340;2023-04-30T03:31:53;7.22;;;4.05;;
53503;SDS011;39387;50.998;22.340;2023-04-30T03:34:21;7.13;;;4.55;;
53503;SDS011;39387;50.998;22.340;2023-04-30T03:36:48;6.97;;;4.57;;
53503;SDS011;39387;50.998;22.340;2023-04-30T03:39:16;7.32;;;4.57;;
53503;SDS011;39387;50.998;22.340;2023-04-30T03:41:43;9.70;;;5.75;;
53503;SDS011;39387;50.998;22.340;2023-04-30T03:44:12;9.95;;;5.45;;
53503;SDS011;39387;50.998;22.340;2023-04-30T03:46:40;9.98;;;5.20;;
53503;SDS011;39387;50.998;22.340;2023-04-30T03:49:08;8.75;;;5.25;;
53503;SDS011;39387;50.998;22.340;2023-04-30T03:51:35;7.40;;;4.72;;
53503;SDS011;39387;50.998;22.340;2023-04-30T03:54:06;6.93;;;4.45;;
53503;SDS011;39387;50.998;22.340;2023-04-30T03:56:33;7.15;;;4.30;;
53503;SDS011;39387;50.998;22.340;2023-04-30T03:59:02;8.90;;;5.13;;
53503;SDS011;39387;50.998;22.340;2023-04-30T04:01:31;8.38;;;5.30;;
53503;SDS011;39387;50.998;22.340;2023-04-30T04:03:59;7.57;;;4.63;;
53503;SDS011;39387;50.998;22.340;2023-04-30T04:06:27;8.15;;;4.65;;
53503;SDS011;39387;50.998;22.340;2023-04-30T04:08:55;6.82;;;4.78;;
53503;SDS011;39387;50.998;22.340;2023-04-30T04:11:22;6.93;;;4.03;;
53503;SDS011;39387;50.998;22.340;2023-04-30T04:13:50;6.93;;;4.43;;
53503;SDS011;39387;50.998;22.340;2023-04-30T04:16:17;8.77;;;4.47;;
53503;SDS011;39387;50.998;22.340;2023-04-30T04:18:46;6.78;;;3.97;;
53503;SDS011;39387;50.998;22.340;2023-04-30T04:21:13;4.82;;;3.47;;
53503;SDS011;39387;50.998;22.340;2023-04-30T04:23:40;5.55;;;4.05;;
53503;SDS011;39387;50.998;22.340;2023-04-30T04:26:08;7.00;;;4.47;;
53503;SDS011;39387;50.998;22.340;2023-04-30T04:28:36;4.70;;;3.35;;
53503;SDS011;39387;50.998;22.340;2023-04-30T04:31:03;4.78;;;3.72;;
53503;SDS011;39387;50.998;22.340;2023-04-30T04:33:31;4.70;;;3.65;;
53503;SDS011;39387;50.998;22.340;2023-04-30T04:35:59;4.82;;;3.75;;
53503;SDS011;39387;50.998;22.340;2023-04-30T04:38:27;3.92;;;2.95;;
53503;SDS011;39387;50.998;22.340;2023-04-30T04:40:55;5.00;;;3.38;;
53503;SDS011;39387;50.998;22.340;2023-04-30T04:43:22;5.65;;;3.30;;
53503;SDS011;39387;50.998;22.340;2023-04-30T04:45:49;4.38;;;3.20;;
53503;SDS011;39387;50.998;22.340;2023-04-30T04:48:17;5.80;;;3.47;;
53503;SDS011;39387;50.998;22.340;2023-04-30T04:50:45;5.65;;;3.28;;
53503;SDS011;39387;50.998;22.340;2023-04-30T04:53:14;8.25;;;3.60;;
53503;SDS011;39387;50.998;22.340;2023-04-30T04:55:41;4.65;;;3.45;;
53503;SDS011;39387;50.998;22.340;2023-04-30T04:58:09;4.43;;;2.92;;
53503;SDS011;39387;50.998;22.340;2023-04-30T05:00:37;4.35;;;3.40;;
53503;SDS011;39387;50.998;22.340;2023-04-30T05:03:05;6.15;;;3.83;;
53503;SDS011;39387;50.998;22.340;2023-04-30T05:05:33;4.78;;;3.40;;
53503;SDS011;39387;50.998;22.340;2023-04-30T05:08:01;4.60;;;3.33;;
53503;SDS011;39387;50.998;22.340;2023-04-30T05:10:29;6.80;;;3.30;;
53503;SDS011;39387;50.998;22.340;2023-04-30T05:12:57;6.45;;;3.50;;
53503;SDS011;39387;50.998;22.340;2023-04-30T05:15:24;5.90;;;3.78;;
53503;SDS011;39387;50.998;22.340;2023-04-30T05:17:52;5.00;;;3.58;;
53503;SDS011;39387;50.998;22.340;2023-04-30T05:20:19;4.75;;;3.65;;
53503;SDS011;39387;50.998;22.340;2023-04-30T05:22:47;7.95;;;3.45;;
53503;SDS011;39387;50.998;22.340;2023-04-30T05:25:14;5.07;;;3.30;;
53503;SDS011;39387;50.998;22.340;2023-04-30T05:27:43;5.05;;;3.42;;
53503;SDS011;39387;50.998;22.340;2023-04-30T05:30:11;5.30;;;3.22;;
53503;SDS011;39387;50.998;22.340;2023-04-30T05:32:40;5.95;;;3.95;;
53503;SDS011;39387;50.998;22.340;2023-04-30T05:35:08;5.60;;;3.75;;
53503;SDS011;39387;50.998;22.340;2023-04-30T05:37:36;4.95;;;3.83;;
53503;SDS011;39387;50.998;22.340;2023-04-30T05:40:03;5.78;;;3.80;;
53503;SDS011;39387;50.998;22.340;2023-04-30T05:42:32;6.53;;;3.88;;
53503;SDS011;39387;50.998;22.340;2023-04-30T05:45:01;6.50;;;4.28;;
53503;SDS011;39387;50.998;22.340;2023-04-30T05:47:28;4.97;;;3.88;;
53503;SDS011;39387;50.998;22.340;2023-04-30T05:49:56;6.68;;;4.38;;
53503;SDS011;39387;50.998;22.340;2023-04-30T05:52:23;6.25;;;4.38;;
53503;SDS011;39387;50.998;22.340;2023-04-30T05:54:51;7.88;;;5.25;;
53503;SDS011;39387;50.998;22.340;2023-04-30T05:57:18;7.55;;;5.78;;
53503;SDS011;39387;50.998;22.340;2023-04-30T05:59:46;8.98;;;6.55;;
53503;SDS011;39387;50.998;22.340;2023-04-30T06:02:15;10.07;;;5.65;;
53503;SDS011;39387;50.998;22.340;2023-04-30T06:04:42;8.20;;;5.90;;
53503;SDS011;39387;50.998;22.340;2023-04-30T06:07:10;8.82;;;6.10;;
53503;SDS011;39387;50.998;22.340;2023-04-30T06:09:37;8.23;;;6.38;;
53503;SDS011;39387;50.998;22.340;2023-04-30T06:12:05;11.05;;;7.25;;
53503;SDS011;39387;50.998;22.340;2023-04-30T06:14:32;9.50;;;6.30;;
53503;SDS011;39387;50.998;22.340;2023-04-30T06:17:00;10.07;;;6.95;;
53503;SDS011;39387;50.998;22.340;2023-04-30T06:19:29;9.15;;;6.93;;
53503;SDS011;39387;50.998;22.340;2023-04-30T06:21:56;10.73;;;7.07;;
53503;SDS011;39387;50.998;22.340;2023-04-30T06:24:24;11.82;;;7.93;;
53503;SDS011;39387;50.998;22.340;2023-04-30T06:26:52;14.85;;;8.88;;
53503;SDS011;39387;50.998;22.340;2023-04-30T06:29:19;13.38;;;9.30;;
53503;SDS011;39387;50.998;22.340;2023-04-30T06:31:49;14.95;;;9.10;;
53503;SDS011;39387;50.998;22.340;2023-04-30T06:34:17;15.10;;;10.27;;
53503;SDS011;39387;50.998;22.340;2023-04-30T06:36:46;12.80;;;9.20;;
53503;SDS011;39387;50.998;22.340;2023-04-30T06:39:14;16.95;;;10.45;;
53503;SDS011;39387;50.998;22.340;2023-04-30T06:41:42;15.43;;;10.50;;
53503;SDS011;39387;50.998;22.340;2023-04-30T06:44:09;15.15;;;10.77;;
53503;SDS011;39387;50.998;22.340;2023-04-30T06:46:37;16.75;;;11.35;;
53503;SDS011;39387;50.998;22.340;2023-04-30T06:49:05;15.40;;;10.40;;
53503;SDS011;39387;50.998;22.340;2023-04-30T06:51:32;17.88;;;11.80;;
53503;SDS011;39387;50.998;22.340;2023-04-30T06:54:01;16.75;;;11.40;;
53503;SDS011;39387;50.998;22.340;2023-04-30T06:56:29;15.25;;;11.13;;
53503;SDS011;39387;50.998;22.340;2023-04-30T06:58:56;16.77;;;12.13;;
53503;SDS011;39387;50.998;22.340;2023-04-30T07:01:23;15.15;;;11.60;;
53503;SDS011;39387;50.998;22.340;2023-04-30T07:03:51;17.05;;;11.60;;
53503;SDS011;39387;50.998;22.340;2023-04-30T07:06:19;15.63;;;12.05;;
53503;SDS011;39387;50.998;22.340;2023-04-30T07:08:46;16.15;;;11.00;;
53503;SDS011;39387;50.998;22.340;2023-04-30T07:11:15;16.08;;;12.05;;
53503;SDS011;39387;50.998;22.340;2023-04-30T07:13:43;15.45;;;11.23;;
53503;SDS011;39387;50.998;22.340;2023-04-30T07:16:10;14.73;;;9.82;;
53503;SDS011;39387;50.998;22.340;2023-04-30T07:18:38;16.15;;;10.52;;
53503;SDS011;39387;50.998;22.340;2023-04-30T07:21:06;15.50;;;11.35;;
53503;SDS011;39387;50.998;22.340;2023-04-30T07:23:33;15.85;;;10.27;;
53503;SDS011;39387;50.998;22.340;2023-04-30T07:26:01;14.20;;;9.85;;
53503;SDS011;39387;50.998;22.340;2023-04-30T07:28:30;15.50;;;10.93;;
53503;SDS011;39387;50.998;22.340;2023-04-30T07:30:57;16.67;;;11.65;;
53503;SDS011;39387;50.998;22.340;2023-04-30T07:33:25;15.88;;;11.45;;
53503;SDS011;39387;50.998;22.340;2023-04-30T07:35:52;13.15;;;10.95;;
53503;SDS011;39387;50.998;22.340;2023-04-30T07:38:21;15.60;;;11.27;;
53503;SDS011;39387;50.998;22.340;2023-04-30T07:40:48;16.02;;;11.57;;
53503;SDS011;39387;50.998;22.340;2023-04-30T07:43:15;16.65;;;12.50;;
53503;SDS011;39387;50.998;22.340;2023-04-30T07:45:44;16.85;;;11.70;;
53503;SDS011;39387;50.998;22.340;2023-04-30T07:48:13;20.20;;;11.60;;
53503;SDS011;39387;50.998;22.340;2023-04-30T07:50:41;14.00;;;10.80;;
53503;SDS011;39387;50.998;22.340;2023-04-30T07:53:09;20.92;;;14.52;;
53503;SDS011;39387;50.998;22.340;2023-04-30T07:55:36;20.92;;;14.73;;
53503;SDS011;39387;50.998;22.340;2023-04-30T07:58:03;19.33;;;13.55;;
53503;SDS011;39387;50.998;22.340;2023-04-30T08:00:31;18.88;;;13.10;;
53503;SDS011;39387;50.998;22.340;2023-04-30T08:02:59;19.40;;;14.15;;
53503;SDS011;39387;50.998;22.340;2023-04-30T08:05:27;20.15;;;13.88;;
53503;SDS011;39387;50.998;22.340;2023-04-30T08:07:54;21.58;;;13.90;;
53503;SDS011;39387;50.998;22.340;2023-04-30T08:10:22;20.55;;;13.77;;
53503;SDS011;39387;50.998;22.340;2023-04-30T08:12:49;20.90;;;12.85;;
53503;SDS011;39387;50.998;22.340;2023-04-30T08:15:17;20.27;;;13.88;;
53503;SDS011;39387;50.998;22.340;2023-04-30T08:17:47;22.10;;;14.00;;
53503;SDS011;39387;50.998;22.340;2023-04-30T08:20:17;22.58;;;14.50;;
53503;SDS011;39387;50.998;22.340;2023-04-30T08:22:45;24.02;;;16.02;;
53503;SDS011;39387;50.998;22.340;2023-04-30T08:25:13;29.35;;;17.73;;
53503;SDS011;39387;50.998;22.340;2023-04-30T08:27:40;26.52;;;18.17;;
53503;SDS011;39387;50.998;22.340;2023-04-30T08:30:07;32.70;;;20.25;;
53503;SDS011;39387;50.998;22.340;2023-04-30T08:32:36;28.27;;;18.27;;
53503;SDS011;39387;50.998;22.340;2023-04-30T08:35:04;31.35;;;19.85;;
53503;SDS011;39387;50.998;22.340;2023-04-30T08:37:33;28.73;;;18.25;;
53503;SDS011;39387;50.998;22.340;2023-04-30T08:40:01;31.05;;;19.80;;
53503;SDS011;39387;50.998;22.340;2023-04-30T08:42:29;31.83;;;18.48;;
53503;SDS011;39387;50.998;22.340;2023-04-30T08:44:57;30.40;;;18.95;;
53503;SDS011;39387;50.998;22.340;2023-04-30T08:47:26;28.00;;;17.80;;
53503;SDS011;39387;50.998;22.340;2023-04-30T08:49:54;28.33;;;17.73;;
53503;SDS011;39387;50.998;22.340;2023-04-30T08:52:21;26.88;;;18.10;;
53503;SDS011;39387;50.998;22.340;2023-04-30T08:54:50;28.55;;;18.08;;
53503;SDS011;39387;50.998;22.340;2023-04-30T08:57:18;31.35;;;19.60;;
53503;SDS011;39387;50.998;22.340;2023-04-30T08:59:46;31.60;;;21.50;;
53503;SDS011;39387;50.998;22.340;2023-04-30T09:02:13;30.92;;;20.40;;
53503;SDS011;39387;50.998;22.340;2023-04-30T09:04:40;33.80;;;20.70;;
53503;SDS011;39387;50.998;22.340;2023-04-30T09:07:07;30.40;;;19.30;;
53503;SDS011;39387;50.998;22.340;2023-04-30T09:09:36;29.77;;;19.63;;
53503;SDS011;39387;50.998;22.340;2023-04-30T09:12:12;27.83;;;17.73;;
53503;SDS011;39387;50.998;22.340;2023-04-30T09:14:56;30.20;;;17.77;;
53503;SDS011;39387;50.998;22.340;2023-04-30T09:17:24;31.25;;;17.60;;
53503;SDS011;39387;50.998;22.340;2023-04-30T09:19:52;31.35;;;18.27;;
53503;SDS011;39387;50.998;22.340;2023-04-30T09:22:19;29.02;;;17.08;;
53503;SDS011;39387;50.998;22.340;2023-04-30T09:24:47;31.13;;;17.63;;
53503;SDS011;39387;50.998;22.340;2023-04-30T09:27:18;31.42;;;16.75;;
53503;SDS011;39387;50.998;22.340;2023-04-30T09:29:46;30.80;;;18.23;;
53503;SDS011;39387;50.998;22.340;2023-04-30T09:32:13;28.98;;;17.33;;
53503;SDS011;39387;50.998;22.340;2023-04-30T09:34:40;27.20;;;17.05;;
53503;SDS011;39387;50.998;22.340;2023-04-30T09:37:08;31.52;;;17.45;;
53503;SDS011;39387;50.998;22.340;2023-04-30T09:39:46;29.63;;;17.63;;
53503;SDS011;39387;50.998;22.340;2023-04-30T09:42:15;29.77;;;17.65;;
53503;SDS011;39387;50.998;22.340;2023-04-30T09:44:44;24.70;;;14.48;;
53503;SDS011;39387;50.998;22.340;2023-04-30T09:47:13;19.42;;;12.95;;
53503;SDS011;39387;50.998;22.340;2023-04-30T09:49:42;21.00;;;12.07;;
53503;SDS011;39387;50.998;22.340;2023-04-30T09:52:09;20.38;;;12.68;;
53503;SDS011;39387;50.998;22.340;2023-04-30T09:54:37;18.85;;;12.80;;
53503;SDS011;39387;50.998;22.340;2023-04-30T09:57:05;21.00;;;12.27;;
53503;SDS011;39387;50.998;22.340;2023-04-30T09:59:37;21.65;;;12.35;;
53503;SDS011;39387;50.998;22.340;2023-04-30T10:02:06;20.70;;;12.40;;
53503;SDS011;39387;50.998;22.340;2023-04-30T10:04:34;18.73;;;12.07;;
53503;SDS011;39387;50.998;22.340;2023-04-30T10:07:03;20.38;;;12.20;;
53503;SDS011;39387;50.998;22.340;2023-04-30T10:09:38;18.33;;;11.75;;
53503;SDS011;39387;50.998;22.340;2023-04-30T10:12:08;19.52;;;11.18;;
53503;SDS011;39387;50.998;22.340;2023-04-30T10:14:41;15.88;;;10.55;;
53503;SDS011;39387;50.998;22.340;2023-04-30T10:17:19;16.60;;;11.15;;
53503;SDS011;39387;50.998;22.340;2023-04-30T10:19:50;14.93;;;9.60;;
53503;SDS011;39387;50.998;22.340;2023-04-30T10:22:18;12.68;;;8.07;;
53503;SDS011;39387;50.998;22.340;2023-04-30T10:24:46;12.40;;;8.48;;
53503;SDS011;39387;50.998;22.340;2023-04-30T10:27:14;13.65;;;8.60;;
53503;SDS011;39387;50.998;22.340;2023-04-30T10:29:41;13.35;;;8.63;;
53503;SDS011;39387;50.998;22.340;2023-04-30T10:32:09;11.98;;;8.68;;
53503;SDS011;39387;50.998;22.340;2023-04-30T10:34:42;13.80;;;8.57;;
53503;SDS011;39387;50.998;22.340;2023-04-30T10:37:15;9.90;;;7.85;;
53503;SDS011;39387;50.998;22.340;2023-04-30T10:39:47;13.68;;;8.55;;
53503;SDS011;39387;50.998;22.340;2023-04-30T10:42:14;12.07;;;8.00;;
53503;SDS011;39387;50.998;22.340;2023-04-30T10:44:42;10.77;;;7.63;;
53503;SDS011;39387;50.998;22.340;2023-04-30T10:47:09;11.55;;;7.55;;
53503;SDS011;39387;50.998;22.340;2023-04-30T10:49:37;10.07;;;7.38;;
53503;SDS011;39387;50.998;22.340;2023-04-30T10:52:09;12.35;;;7.65;;
53503;SDS011;39387;50.998;22.340;2023-04-30T10:54:37;9.82;;;7.35;;
53503;SDS011;39387;50.998;22.340;2023-04-30T10:57:11;10.13;;;6.30;;
53503;SDS011;39387;50.998;22.340;2023-04-30T10:59:42;9.45;;;6.38;;
53503;SDS011;39387;50.998;22.340;2023-04-30T11:02:12;8.65;;;6.28;;
53503;SDS011;39387;50.998;22.340;2023-04-30T11:07:48;13.20;;;9.40;;
53503;SDS011;39387;50.998;22.340;2023-04-30T11:10:18;17.30;;;12.73;;
53503;SDS011;39387;50.998;22.340;2023-04-30T11:12:47;15.20;;;9.85;;
53503;SDS011;39387;50.998;22.340;2023-04-30T11:15:16;11.30;;;10.23;;
53503;SDS011;39387;50.998;22.340;2023-04-30T11:17:44;10.07;;;7.72;;
53503;SDS011;39387;50.998;22.340;2023-04-30T11:20:13;7.00;;;5.88;;
53503;SDS011;39387;50.998;22.340;2023-04-30T11:22:42;7.97;;;5.50;;
53503;SDS011;39387;50.998;22.340;2023-04-30T11:25:13;8.63;;;5.57;;
53503;SDS011;39387;50.998;22.340;2023-04-30T11:27:44;7.80;;;5.68;;
53503;SDS011;39387;50.998;22.340;2023-04-30T11:30:13;8.10;;;5.72;;
53503;SDS011;39387;50.998;22.340;2023-04-30T11:32:44;6.53;;;5.18;;
53503;SDS011;39387;50.998;22.340;2023-04-30T11:35:16;9.48;;;5.30;;
53503;SDS011;39387;50.998;22.340;2023-04-30T11:37:44;5.53;;;4.78;;
53503;SDS011;39387;50.998;22.340;2023-04-30T11:40:13;6.57;;;5.40;;
53503;SDS011;39387;50.998;22.340;2023-04-30T11:42:41;6.63;;;5.57;;
53503;SDS011;39387;50.998;22.340;2023-04-30T11:45:11;8.82;;;5.95;;
53503;SDS011;39387;50.998;22.340;2023-04-30T11:47:42;8.20;;;6.25;;
53503;SDS011;39387;50.998;22.340;2023-04-30T11:50:11;7.07;;;5.50;;
53503;SDS011;39387;50.998;22.340;2023-04-30T11:52:39;9.50;;;6.38;;
53503;SDS011;39387;50.998;22.340;2023-04-30T11:55:13;9.02;;;6.65;;
53503;SDS011;39387;50.998;22.340;2023-04-30T11:57:41;8.65;;;6.93;;
53503;SDS011;39387;50.998;22.340;2023-04-30T12:00:10;28.50;;;14.13;;
53503;SDS011;39387;50.998;22.340;2023-04-30T12:02:39;39.15;;;18.27;;
53503;SDS011;39387;50.998;22.340;2023-04-30T12:05:16;9.88;;;7.25;;
53503;SDS011;39387;50.998;22.340;2023-04-30T12:07:45;7.93;;;6.10;;
53503;SDS011;39387;50.998;22.340;2023-04-30T12:10:15;14.43;;;11.32;;
53503;SDS011;39387;50.998;22.340;2023-04-30T12:12:42;10.27;;;6.95;;
53503;SDS011;39387;50.998;22.340;2023-04-30T12:15:11;7.75;;;6.47;;
53503;SDS011;39387;50.998;22.340;2023-04-30T12:17:40;8.35;;;7.18;;
53503;SDS011;39387;50.998;22.340;2023-04-30T12:20:08;7.35;;;6.57;;
53503;SDS011;39387;50.998;22.340;2023-04-30T12:22:36;8.77;;;6.20;;
53503;SDS011;39387;50.998;22.340;2023-04-30T12:25:05;6.30;;;5.38;;
53503;SDS011;39387;50.998;22.340;2023-04-30T12:27:35;7.55;;;5.38;;
53503;SDS011;39387;50.998;22.340;2023-04-30T12:30:04;7.25;;;5.25;;
53503;SDS011;39387;50.998;22.340;2023-04-30T12:32:37;4.45;;;4.05;;
53503;SDS011;39387;50.998;22.340;2023-04-30T12:35:06;4.53;;;4.07;;
53503;SDS011;39387;50.998;22.340;2023-04-30T12:37:34;5.75;;;4.40;;
53503;SDS011;39387;50.998;22.340;2023-04-30T12:40:02;5.20;;;4.60;;
53503;SDS011;39387;50.998;22.340;2023-04-30T12:42:32;6.05;;;4.75;;
53503;SDS011;39387;50.998;22.340;2023-04-30T12:45:02;6.10;;;4.82;;
53503;SDS011;39387;50.998;22.340;2023-04-30T12:47:29;4.75;;;4.30;;
53503;SDS011;39387;50.998;22.340;2023-04-30T12:49:57;6.60;;;4.72;;
53503;SDS011;39387;50.998;22.340;2023-04-30T12:52:24;5.88;;;4.10;;
53503;SDS011;39387;50.998;22.340;2023-04-30T12:54:52;5.95;;;5.03;;
53503;SDS011;39387;50.998;22.340;2023-04-30T12:57:20;5.85;;;4.30;;
53503;SDS011;39387;50.998;22.340;2023-04-30T12:59:57;5.55;;;4.30;;
53503;SDS011;39387;50.998;22.340;2023-04-30T13:02:27;4.90;;;3.50;;
53503;SDS011;39387;50.998;22.340;2023-04-30T13:04:56;4.72;;;3.63;;
53503;SDS011;39387;50.998;22.340;2023-04-30T13:07:24;5.72;;;3.35;;
53503;SDS011;39387;50.998;22.340;2023-04-30T13:09:52;5.05;;;3.38;;
53503;SDS011;39387;50.998;22.340;2023-04-30T13:12:19;4.97;;;3.45;;
53503;SDS011;39387;50.998;22.340;2023-04-30T13:14:47;4.65;;;3.63;;
53503;SDS011;39387;50.998;22.340;2023-04-30T13:17:14;5.00;;;4.00;;
53503;SDS011;39387;50.998;22.340;2023-04-30T13:19:43;4.68;;;3.85;;
53503;SDS011;39387;50.998;22.340;2023-04-30T13:22:11;3.47;;;3.10;;
53503;SDS011;39387;50.998;22.340;2023-04-30T13:24:38;3.30;;;2.88;;
53503;SDS011;39387;50.998;22.340;2023-04-30T13:27:05;3.70;;;2.53;;
53503;SDS011;39387;50.998;22.340;2023-04-30T13:29:33;6.50;;;5.55;;
53503;SDS011;39387;50.998;22.340;2023-04-30T13:32:00;3.65;;;2.50;;
53503;SDS011;39387;50.998;22.340;2023-04-30T13:34:29;5.70;;;2.60;;
53503;SDS011;39387;50.998;22.340;2023-04-30T13:36:58;3.72;;;2.20;;
53503;SDS011;39387;50.998;22.340;2023-04-30T13:39:26;5.07;;;2.25;;
53503;SDS011;39387;50.998;22.340;2023-04-30T13:41:53;3.17;;;2.33;;
53503;SDS011;39387;50.998;22.340;2023-04-30T13:44:21;4.43;;;2.05;;
53503;SDS011;39387;50.998;22.340;2023-04-30T13:46:48;2.22;;;2.03;;
53503;SDS011;39387;50.998;22.340;2023-04-30T13:49:16;4.15;;;2.20;;
53503;SDS011;39387;50.998;22.340;2023-04-30T13:51:44;3.45;;;2.00;;
53503;SDS011;39387;50.998;22.340;2023-04-30T13:54:13;3.60;;;1.90;;
53503;SDS011;39387;50.998;22.340;2023-04-30T13:56:40;2.42;;;1.40;;
53503;SDS011;39387;50.998;22.340;2023-04-30T13:59:07;2.88;;;1.40;;
53503;SDS011;39387;50.998;22.340;2023-04-30T14:01:35;2.65;;;1.20;;
53503;SDS011;39387;50.998;22.340;2023-04-30T14:04:03;2.92;;;1.35;;
53503;SDS011;39387;50.998;22.340;2023-04-30T14:06:30;3.47;;;1.60;;
53503;SDS011;39387;50.998;22.340;2023-04-30T14:08:58;3.00;;;1.40;;
53503;SDS011;39387;50.998;22.340;2023-04-30T14:11:27;3.15;;;1.50;;
53503;SDS011;39387;50.998;22.340;2023-04-30T14:13:54;2.47;;;1.40;;
53503;SDS011;39387;50.998;22.340;2023-04-30T14:16:21;1.25;;;1.00;;
53503;SDS011;39387;50.998;22.340;2023-04-30T14:18:50;2.85;;;1.40;;
53503;SDS011;39387;50.998;22.340;2023-04-30T14:21:17;1.55;;;1.15;;
53503;SDS011;39387;50.998;22.340;2023-04-30T14:23:45;2.75;;;1.60;;
53503;SDS011;39387;50.998;22.340;2023-04-30T14:26:12;1.42;;;1.02;;
53503;SDS011;39387;50.998;22.340;2023-04-30T14:28:42;3.40;;;0.93;;
53503;SDS011;39387;50.998;22.340;2023-04-30T14:31:09;3.25;;;1.92;;
53503;SDS011;39387;50.998;22.340;2023-04-30T14:33:37;5.85;;;2.28;;
53503;SDS011;39387;50.998;22.340;2023-04-30T14:36:04;5.30;;;2.40;;